Terminal Aerodrome Forecast
Issued by NWS Pittsburgh, PA

Current Version | Previous Version | Graphics & Text | Print | Product List | Glossary On
Versions: 1 2 3 4 5 6 7 8 9 10 11 12 13 14 15 16 17 18 19 20 21 22 23 24 25 26 27 28
578
FTUS41 KPBZ 240520
TAFPIT
TAF
KPIT 240520Z 2406/2512 27006KT P6SM -SHRA SCT022 OVC040
     FM240800 28006KT P6SM VCSH BKN015
     FM241000 29006KT P6SM BKN035
     FM241200 29006KT P6SM SCT100
     FM241600 27010G18KT P6SM SCT250
     FM250100 28005KT P6SM SCT250=

USA.gov is the U.S. government's official web portal to all federal, state and local government web resources and services.